Aérodrome :
LOGIN :

S'inscrire | Disclaimer

   EN    FR    IT 

 










Légende :    VFR   VFR Marginal   IFR   IFR Intensif   IFR Très Intensif
Visi : 
Plafond : 
>= 8 km
>= 3000ft
5 à 8 km
1000 à 3000 ft
1500m à 5 km
500 à 1000 ft
800 à 1500m
200 à 500 ft
< 800m
< 200 ft
Symboles :   Orages  Brouillard  Fortes neiges  Fortes précipitations  Vent > 20 kt
SIGMETs :   Divers  Orages  Givrage  Turbulence  Onde Orograph.  Cendres Volcan.






- Altitude de l'aérodrome : 1416 ft
- Code IATA : ZRH


LSZH - Zurich

DERNIER METAR :
  • 270350Z 04010KT 9999 SCT022 BKN027 06/01 Q1032 NOSIG

METARs EXPIRÉS :
  • 270320Z 04010KT 9999 SCT020 BKN027 06/01 Q1032 NOSIG
  • 270250Z 03010KT 360V060 9999 SCT018 BKN025 06/01 Q1032 NOSIG
  • 270220Z 03009KT 9999 FEW016 BKN018 BKN028 06/02 Q1032 TEMPO BKN014
  • 270150Z 03008KT 9999 FEW014 SCT018 BKN040 06/03 Q1032 TEMPO BKN014
  • 270120Z 35006KT 9999 FEW012 SCT015 BKN037 06/03 Q1032 TEMPO BKN014

TAF TAF LSZH
Valide du 27 à 03h jusqu'au 28 à 09h UTC


270225Z 2703/2809 03010KT 9999 FEW014 BKN025 TX10/2715Z TN05/2705Z TN00/2804Z
TEMPO 2703/2706 BKN012
TEMPO 2706/2717 05015G28KT
BECMG 2717/2720 04007KT CAVOK
BECMG 2800/2803 6000 BR BKN008
ATIS : +41 43 816 2295 (DEP) +41 43 816 2294 (ARR)



MET'MAP, la Météo Aéronautique d'un coup d'oeil ! - Copyright ORBIFLY Décembre 2007 - Disclaimer

ORBIFLY MET'MAP TEAM :

Programmation & Développement : Alexandra Zaïnal
Sur une idée originale de : Baudouin d'Aumeries
Assistance à la programmation : Marc-Olivier Méhu
Soutien technique & logistique : Manuel Goepfert

Contact : metmap@orbifly.com




SOURCES & CREDITS :

   NOAA